Terminal Aerodrome Forecast
Issued by NWS

Home | Current Version | Previous Version | Text Only | Print | Product List | Glossary Off
Versions: 1 2 3 4 5 6 7 8 9 10 11 12 13 14 15 16 17 18 19 20

710
FTUS41 KCLE 150704 AAA
TAFFDY
TAF AMD
KFDY 150704Z 1507/1606 14006KT P6SM BKN070 OVC120
     FM150900 14008KT 3SM -SN OVC025
      TEMPO 1509/1512 2SM -SN
     FM151500 15011KT 1 1/2SM -SN OVC015
     FM152100 19009KT 2SM -SN OVC010
     FM160000 22009KT P6SM OVC010=

USA.gov is the U.S. government's official web portal to all federal, state and local government web resources and services.